sensor_id;sensor_type;location;lat;lon;timestamp;P1;durP1;ratioP1;P2;durP2;ratioP2
80494;SDS011;69819;48.798;11.770;2023-09-19T00:00:05;0.63;;;0.60;;
80494;SDS011;69819;48.798;11.770;2023-09-19T00:02:32;0.60;;;0.60;;
80494;SDS011;69819;48.798;11.770;2023-09-19T00:04:59;1.83;;;0.60;;
80494;SDS011;69819;48.798;11.770;2023-09-19T00:07:28;0.50;;;0.50;;
80494;SDS011;69819;48.798;11.770;2023-09-19T00:09:54;0.75;;;0.70;;
80494;SDS011;69819;48.798;11.770;2023-09-19T00:12:20;0.98;;;0.70;;
80494;SDS011;69819;48.798;11.770;2023-09-19T00:14:45;0.73;;;0.70;;
80494;SDS011;69819;48.798;11.770;2023-09-19T00:17:12;1.30;;;0.70;;
80494;SDS011;69819;48.798;11.770;2023-09-19T00:19:41;1.23;;;0.90;;
80494;SDS011;69819;48.798;11.770;2023-09-19T00:22:07;0.43;;;0.43;;
80494;SDS011;69819;48.798;11.770;2023-09-19T00:24:33;0.95;;;0.50;;
80494;SDS011;69819;48.798;11.770;2023-09-19T00:26:59;2.40;;;0.68;;
80494;SDS011;69819;48.798;11.770;2023-09-19T00:29:25;0.50;;;0.47;;
80494;SDS011;69819;48.798;11.770;2023-09-19T00:31:54;0.73;;;0.50;;
80494;SDS011;69819;48.798;11.770;2023-09-19T00:34:24;0.60;;;0.50;;
80494;SDS011;69819;48.798;11.770;2023-09-19T00:36:50;0.50;;;0.50;;
80494;SDS011;69819;48.798;11.770;2023-09-19T00:39:19;1.00;;;0.60;;
80494;SDS011;69819;48.798;11.770;2023-09-19T00:41:47;0.75;;;0.40;;
80494;SDS011;69819;48.798;11.770;2023-09-19T00:44:12;0.50;;;0.50;;
80494;SDS011;69819;48.798;11.770;2023-09-19T00:46:40;0.32;;;0.32;;
80494;SDS011;69819;48.798;11.770;2023-09-19T00:49:07;0.88;;;0.50;;
80494;SDS011;69819;48.798;11.770;2023-09-19T00:51:34;0.77;;;0.50;;
80494;SDS011;69819;48.798;11.770;2023-09-19T00:54:01;0.50;;;0.50;;
80494;SDS011;69819;48.798;11.770;2023-09-19T00:56:29;0.70;;;0.70;;
80494;SDS011;69819;48.798;11.770;2023-09-19T00:58:54;1.40;;;0.75;;
80494;SDS011;69819;48.798;11.770;2023-09-19T01:01:20;0.75;;;0.70;;
80494;SDS011;69819;48.798;11.770;2023-09-19T01:03:46;0.60;;;0.52;;
80494;SDS011;69819;48.798;11.770;2023-09-19T01:06:12;1.00;;;0.52;;
80494;SDS011;69819;48.798;11.770;2023-09-19T01:08:38;0.55;;;0.43;;
80494;SDS011;69819;48.798;11.770;2023-09-19T01:11:15;0.52;;;0.50;;
80494;SDS011;69819;48.798;11.770;2023-09-19T01:17:09;0.82;;;0.70;;
80494;SDS011;69819;48.798;11.770;2023-09-19T01:29:08;0.80;;;0.55;;
80494;SDS011;69819;48.798;11.770;2023-09-19T01:32:04;0.85;;;0.75;;
80494;SDS011;69819;48.798;11.770;2023-09-19T01:34:44;0.50;;;0.50;;
80494;SDS011;69819;48.798;11.770;2023-09-19T01:37:13;1.60;;;0.70;;
80494;SDS011;69819;48.798;11.770;2023-09-19T01:39:43;0.52;;;0.47;;
80494;SDS011;69819;48.798;11.770;2023-09-19T01:42:12;0.85;;;0.57;;
80494;SDS011;69819;48.798;11.770;2023-09-19T01:45:13;1.38;;;0.57;;
80494;SDS011;69819;48.798;11.770;2023-09-19T01:48:49;0.95;;;0.77;;
80494;SDS011;69819;48.798;11.770;2023-09-19T01:51:11;1.05;;;0.65;;
80494;SDS011;69819;48.798;11.770;2023-09-19T01:53:57;0.60;;;0.45;;
80494;SDS011;69819;48.798;11.770;2023-09-19T01:59:13;0.55;;;0.55;;
80494;SDS011;69819;48.798;11.770;2023-09-19T02:01:46;0.80;;;0.60;;
80494;SDS011;69819;48.798;11.770;2023-09-19T02:04:14;0.60;;;0.60;;
80494;SDS011;69819;48.798;11.770;2023-09-19T02:06:41;0.70;;;0.60;;
80494;SDS011;69819;48.798;11.770;2023-09-19T02:09:07;0.63;;;0.63;;
80494;SDS011;69819;48.798;11.770;2023-09-19T02:11:34;1.10;;;0.57;;
80494;SDS011;69819;48.798;11.770;2023-09-19T02:14:01;0.65;;;0.40;;
80494;SDS011;69819;48.798;11.770;2023-09-19T02:16:27;0.85;;;0.57;;
80494;SDS011;69819;48.798;11.770;2023-09-19T02:18:53;0.82;;;0.60;;
80494;SDS011;69819;48.798;11.770;2023-09-19T02:21:19;0.50;;;0.50;;
80494;SDS011;69819;48.798;11.770;2023-09-19T02:23:46;0.40;;;0.30;;
80494;SDS011;69819;48.798;11.770;2023-09-19T02:26:13;0.50;;;0.50;;
80494;SDS011;69819;48.798;11.770;2023-09-19T02:28:39;1.40;;;0.65;;
80494;SDS011;69819;48.798;11.770;2023-09-19T02:31:05;0.45;;;0.45;;
80494;SDS011;69819;48.798;11.770;2023-09-19T02:33:31;0.95;;;0.50;;
80494;SDS011;69819;48.798;11.770;2023-09-19T02:35:57;0.75;;;0.50;;
80494;SDS011;69819;48.798;11.770;2023-09-19T02:38:24;1.30;;;0.57;;
80494;SDS011;69819;48.798;11.770;2023-09-19T02:40:51;0.50;;;0.50;;
80494;SDS011;69819;48.798;11.770;2023-09-19T02:43:18;0.45;;;0.43;;
80494;SDS011;69819;48.798;11.770;2023-09-19T02:45:47;0.63;;;0.60;;
80494;SDS011;69819;48.798;11.770;2023-09-19T02:48:18;0.57;;;0.50;;
80494;SDS011;69819;48.798;11.770;2023-09-19T02:50:44;0.95;;;0.70;;
80494;SDS011;69819;48.798;11.770;2023-09-19T02:53:11;1.13;;;0.47;;
80494;SDS011;69819;48.798;11.770;2023-09-19T02:55:38;1.27;;;0.80;;
80494;SDS011;69819;48.798;11.770;2023-09-19T02:58:08;0.82;;;0.65;;
80494;SDS011;69819;48.798;11.770;2023-09-19T03:00:35;0.63;;;0.63;;
80494;SDS011;69819;48.798;11.770;2023-09-19T03:03:02;0.98;;;0.60;;
80494;SDS011;69819;48.798;11.770;2023-09-19T03:05:30;0.50;;;0.50;;
80494;SDS011;69819;48.798;11.770;2023-09-19T03:07:56;0.43;;;0.43;;
80494;SDS011;69819;48.798;11.770;2023-09-19T03:10:25;0.77;;;0.50;;
80494;SDS011;69819;48.798;11.770;2023-09-19T03:12:53;0.47;;;0.47;;
80494;SDS011;69819;48.798;11.770;2023-09-19T03:15:19;0.57;;;0.47;;
80494;SDS011;69819;48.798;11.770;2023-09-19T03:17:46;0.65;;;0.40;;
80494;SDS011;69819;48.798;11.770;2023-09-19T03:20:13;0.38;;;0.38;;
80494;SDS011;69819;48.798;11.770;2023-09-19T03:22:45;0.50;;;0.50;;
80494;SDS011;69819;48.798;11.770;2023-09-19T03:25:11;0.30;;;0.30;;
80494;SDS011;69819;48.798;11.770;2023-09-19T03:27:40;0.40;;;0.40;;
80494;SDS011;69819;48.798;11.770;2023-09-19T03:30:06;0.88;;;0.50;;
80494;SDS011;69819;48.798;11.770;2023-09-19T03:32:45;0.55;;;0.50;;
80494;SDS011;69819;48.798;11.770;2023-09-19T03:35:14;0.73;;;0.40;;
80494;SDS011;69819;48.798;11.770;2023-09-19T03:37:41;1.67;;;0.50;;
80494;SDS011;69819;48.798;11.770;2023-09-19T03:40:09;1.08;;;0.50;;
80494;SDS011;69819;48.798;11.770;2023-09-19T03:42:39;0.73;;;0.65;;
80494;SDS011;69819;48.798;11.770;2023-09-19T03:45:07;0.85;;;0.50;;
80494;SDS011;69819;48.798;11.770;2023-09-19T03:47:41;2.22;;;0.57;;
80494;SDS011;69819;48.798;11.770;2023-09-19T03:50:07;0.45;;;0.45;;
80494;SDS011;69819;48.798;11.770;2023-09-19T03:52:35;0.52;;;0.50;;
80494;SDS011;69819;48.798;11.770;2023-09-19T03:55:02;0.45;;;0.45;;
80494;SDS011;69819;48.798;11.770;2023-09-19T03:57:29;0.52;;;0.50;;
80494;SDS011;69819;48.798;11.770;2023-09-19T03:59:55;0.50;;;0.50;;
80494;SDS011;69819;48.798;11.770;2023-09-19T04:02:21;1.63;;;0.50;;
80494;SDS011;69819;48.798;11.770;2023-09-19T04:04:48;1.35;;;0.55;;
80494;SDS011;69819;48.798;11.770;2023-09-19T04:07:14;0.65;;;0.50;;
80494;SDS011;69819;48.798;11.770;2023-09-19T04:09:40;1.55;;;0.47;;
80494;SDS011;69819;48.798;11.770;2023-09-19T04:12:06;1.88;;;0.57;;
80494;SDS011;69819;48.798;11.770;2023-09-19T04:14:36;0.60;;;0.50;;
80494;SDS011;69819;48.798;11.770;2023-09-19T04:17:02;0.50;;;0.50;;
80494;SDS011;69819;48.798;11.770;2023-09-19T04:19:30;0.70;;;0.70;;
80494;SDS011;69819;48.798;11.770;2023-09-19T04:21:56;0.35;;;0.30;;
80494;SDS011;69819;48.798;11.770;2023-09-19T04:24:22;0.95;;;0.52;;
80494;SDS011;69819;48.798;11.770;2023-09-19T04:26:47;0.57;;;0.40;;
80494;SDS011;69819;48.798;11.770;2023-09-19T04:29:13;0.40;;;0.40;;
80494;SDS011;69819;48.798;11.770;2023-09-19T04:31:39;0.35;;;0.35;;
80494;SDS011;69819;48.798;11.770;2023-09-19T04:34:09;0.52;;;0.40;;
80494;SDS011;69819;48.798;11.770;2023-09-19T04:36:35;0.35;;;0.35;;
80494;SDS011;69819;48.798;11.770;2023-09-19T04:39:02;0.40;;;0.40;;
80494;SDS011;69819;48.798;11.770;2023-09-19T04:41:32;0.47;;;0.30;;
80494;SDS011;69819;48.798;11.770;2023-09-19T04:43:59;0.52;;;0.52;;
80494;SDS011;69819;48.798;11.770;2023-09-19T04:46:26;0.60;;;0.60;;
80494;SDS011;69819;48.798;11.770;2023-09-19T04:48:52;0.60;;;0.60;;
80494;SDS011;69819;48.798;11.770;2023-09-19T04:51:18;0.70;;;0.60;;
80494;SDS011;69819;48.798;11.770;2023-09-19T04:53:45;0.82;;;0.82;;
80494;SDS011;69819;48.798;11.770;2023-09-19T04:56:11;0.52;;;0.52;;
80494;SDS011;69819;48.798;11.770;2023-09-19T04:58:38;1.00;;;0.80;;
80494;SDS011;69819;48.798;11.770;2023-09-19T05:01:04;0.60;;;0.60;;
80494;SDS011;69819;48.798;11.770;2023-09-19T05:03:30;0.93;;;0.65;;
80494;SDS011;69819;48.798;11.770;2023-09-19T05:05:55;1.25;;;0.93;;
80494;SDS011;69819;48.798;11.770;2023-09-19T05:08:21;2.67;;;1.00;;
80494;SDS011;69819;48.798;11.770;2023-09-19T05:10:47;0.88;;;0.70;;
80494;SDS011;69819;48.798;11.770;2023-09-19T05:13:14;0.90;;;0.70;;
80494;SDS011;69819;48.798;11.770;2023-09-19T05:15:40;0.73;;;0.73;;
80494;SDS011;69819;48.798;11.770;2023-09-19T05:18:06;0.70;;;0.70;;
80494;SDS011;69819;48.798;11.770;2023-09-19T05:20:32;1.58;;;0.70;;
80494;SDS011;69819;48.798;11.770;2023-09-19T05:23:03;0.77;;;0.70;;
80494;SDS011;69819;48.798;11.770;2023-09-19T05:25:37;1.05;;;0.70;;
80494;SDS011;69819;48.798;11.770;2023-09-19T05:28:09;0.60;;;0.60;;
80494;SDS011;69819;48.798;11.770;2023-09-19T05:30:39;0.60;;;0.60;;
80494;SDS011;69819;48.798;11.770;2023-09-19T05:33:08;0.80;;;0.63;;
80494;SDS011;69819;48.798;11.770;2023-09-19T05:35:34;1.02;;;0.85;;
80494;SDS011;69819;48.798;11.770;2023-09-19T05:38:04;0.77;;;0.70;;
80494;SDS011;69819;48.798;11.770;2023-09-19T05:40:33;0.70;;;0.70;;
80494;SDS011;69819;48.798;11.770;2023-09-19T05:43:00;0.70;;;0.70;;
80494;SDS011;69819;48.798;11.770;2023-09-19T05:45:28;1.70;;;1.00;;
80494;SDS011;69819;48.798;11.770;2023-09-19T05:47:54;1.23;;;0.77;;
80494;SDS011;69819;48.798;11.770;2023-09-19T05:50:29;1.58;;;0.63;;
80494;SDS011;69819;48.798;11.770;2023-09-19T05:52:57;1.40;;;0.63;;
80494;SDS011;69819;48.798;11.770;2023-09-19T05:55:23;2.00;;;0.88;;
80494;SDS011;69819;48.798;11.770;2023-09-19T05:57:51;0.52;;;0.50;;
80494;SDS011;69819;48.798;11.770;2023-09-19T06:00:22;0.88;;;0.80;;
80494;SDS011;69819;48.798;11.770;2023-09-19T06:02:52;2.15;;;0.85;;
80494;SDS011;69819;48.798;11.770;2023-09-19T06:05:22;1.08;;;0.80;;
80494;SDS011;69819;48.798;11.770;2023-09-19T06:07:51;0.80;;;0.80;;
80494;SDS011;69819;48.798;11.770;2023-09-19T06:10:18;0.75;;;0.75;;
80494;SDS011;69819;48.798;11.770;2023-09-19T06:12:46;1.55;;;1.10;;
80494;SDS011;69819;48.798;11.770;2023-09-19T06:15:13;1.35;;;0.90;;
80494;SDS011;69819;48.798;11.770;2023-09-19T06:17:50;1.00;;;0.80;;
80494;SDS011;69819;48.798;11.770;2023-09-19T06:20:21;0.90;;;0.77;;
80494;SDS011;69819;48.798;11.770;2023-09-19T06:22:50;1.05;;;0.95;;
80494;SDS011;69819;48.798;11.770;2023-09-19T06:25:16;0.68;;;0.60;;
80494;SDS011;69819;48.798;11.770;2023-09-19T06:27:50;0.98;;;0.63;;
80494;SDS011;69819;48.798;11.770;2023-09-19T06:30:18;2.58;;;0.73;;
80494;SDS011;69819;48.798;11.770;2023-09-19T06:32:45;0.80;;;0.60;;
80494;SDS011;69819;48.798;11.770;2023-09-19T06:35:12;0.95;;;0.70;;
80494;SDS011;69819;48.798;11.770;2023-09-19T06:37:40;0.85;;;0.80;;
80494;SDS011;69819;48.798;11.770;2023-09-19T06:40:11;0.68;;;0.68;;
80494;SDS011;69819;48.798;11.770;2023-09-19T06:42:51;1.40;;;0.73;;
80494;SDS011;69819;48.798;11.770;2023-09-19T06:45:19;0.98;;;0.90;;
80494;SDS011;69819;48.798;11.770;2023-09-19T06:47:46;0.60;;;0.60;;
80494;SDS011;69819;48.798;11.770;2023-09-19T06:50:15;1.77;;;0.70;;
80494;SDS011;69819;48.798;11.770;2023-09-19T06:52:47;0.90;;;0.52;;
80494;SDS011;69819;48.798;11.770;2023-09-19T06:55:16;2.10;;;1.00;;
80494;SDS011;69819;48.798;11.770;2023-09-19T06:57:50;0.65;;;0.65;;
80494;SDS011;69819;48.798;11.770;2023-09-19T07:00:16;1.48;;;0.70;;
80494;SDS011;69819;48.798;11.770;2023-09-19T07:03:03;1.10;;;1.00;;
80494;SDS011;69819;48.798;11.770;2023-09-19T07:05:33;0.90;;;0.75;;
80494;SDS011;69819;48.798;11.770;2023-09-19T07:08:04;1.73;;;1.00;;
80494;SDS011;69819;48.798;11.770;2023-09-19T07:10:32;0.70;;;0.70;;
80494;SDS011;69819;48.798;11.770;2023-09-19T07:13:05;1.70;;;0.75;;
80494;SDS011;69819;48.798;11.770;2023-09-19T07:15:35;2.28;;;0.80;;
80494;SDS011;69819;48.798;11.770;2023-09-19T07:18:11;0.60;;;0.60;;
80494;SDS011;69819;48.798;11.770;2023-09-19T07:20:39;0.65;;;0.60;;
80494;SDS011;69819;48.798;11.770;2023-09-19T07:23:10;0.70;;;0.40;;
80494;SDS011;69819;48.798;11.770;2023-09-19T07:25:40;1.90;;;0.57;;
80494;SDS011;69819;48.798;11.770;2023-09-19T07:28:06;0.65;;;0.52;;
80494;SDS011;69819;48.798;11.770;2023-09-19T07:30:31;2.63;;;0.43;;
80494;SDS011;69819;48.798;11.770;2023-09-19T07:33:02;1.67;;;0.65;;
80494;SDS011;69819;48.798;11.770;2023-09-19T07:35:30;0.60;;;0.60;;
80494;SDS011;69819;48.798;11.770;2023-09-19T07:37:57;0.47;;;0.47;;
80494;SDS011;69819;48.798;11.770;2023-09-19T07:40:23;1.45;;;0.70;;
80494;SDS011;69819;48.798;11.770;2023-09-19T07:42:51;0.70;;;0.50;;
80494;SDS011;69819;48.798;11.770;2023-09-19T07:45:18;2.50;;;0.68;;
80494;SDS011;69819;48.798;11.770;2023-09-19T07:47:47;1.65;;;0.77;;
80494;SDS011;69819;48.798;11.770;2023-09-19T07:50:14;1.05;;;0.60;;
80494;SDS011;69819;48.798;11.770;2023-09-19T07:52:45;0.52;;;0.52;;
80494;SDS011;69819;48.798;11.770;2023-09-19T07:55:18;0.73;;;0.70;;
80494;SDS011;69819;48.798;11.770;2023-09-19T07:57:48;0.60;;;0.60;;
80494;SDS011;69819;48.798;11.770;2023-09-19T08:00:14;1.13;;;0.45;;
80494;SDS011;69819;48.798;11.770;2023-09-19T08:02:40;0.50;;;0.50;;
80494;SDS011;69819;48.798;11.770;2023-09-19T08:05:11;0.50;;;0.50;;
80494;SDS011;69819;48.798;11.770;2023-09-19T08:07:41;0.73;;;0.40;;
80494;SDS011;69819;48.798;11.770;2023-09-19T08:10:09;1.08;;;0.60;;
80494;SDS011;69819;48.798;11.770;2023-09-19T08:12:45;1.58;;;0.50;;
80494;SDS011;69819;48.798;11.770;2023-09-19T08:15:17;0.60;;;0.60;;
80494;SDS011;69819;48.798;11.770;2023-09-19T08:17:46;0.80;;;0.50;;
80494;SDS011;69819;48.798;11.770;2023-09-19T08:20:13;0.63;;;0.52;;
80494;SDS011;69819;48.798;11.770;2023-09-19T08:22:52;1.40;;;0.80;;
80494;SDS011;69819;48.798;11.770;2023-09-19T08:25:22;1.15;;;0.60;;
80494;SDS011;69819;48.798;11.770;2023-09-19T08:27:50;0.40;;;0.40;;
80494;SDS011;69819;48.798;11.770;2023-09-19T08:30:16;0.55;;;0.52;;
80494;SDS011;69819;48.798;11.770;2023-09-19T08:32:58;0.40;;;0.40;;
80494;SDS011;69819;48.798;11.770;2023-09-19T08:35:25;0.77;;;0.55;;
80494;SDS011;69819;48.798;11.770;2023-09-19T08:37:52;0.68;;;0.68;;
80494;SDS011;69819;48.798;11.770;2023-09-19T08:40:18;0.65;;;0.55;;
80494;SDS011;69819;48.798;11.770;2023-09-19T08:42:48;0.65;;;0.65;;
80494;SDS011;69819;48.798;11.770;2023-09-19T08:45:22;0.50;;;0.50;;
80494;SDS011;69819;48.798;11.770;2023-09-19T08:48:38;0.40;;;0.40;;
80494;SDS011;69819;48.798;11.770;2023-09-19T08:50:56;0.68;;;0.50;;
80494;SDS011;69819;48.798;11.770;2023-09-19T08:53:40;0.65;;;0.60;;
80494;SDS011;69819;48.798;11.770;2023-09-19T08:56:19;0.90;;;0.52;;
80494;SDS011;69819;48.798;11.770;2023-09-19T09:01:20;1.60;;;0.90;;
80494;SDS011;69819;48.798;11.770;2023-09-19T09:03:49;1.02;;;0.55;;
80494;SDS011;69819;48.798;11.770;2023-09-19T09:06:18;0.82;;;0.73;;
80494;SDS011;69819;48.798;11.770;2023-09-19T09:08:52;0.82;;;0.60;;
80494;SDS011;69819;48.798;11.770;2023-09-19T09:11:18;0.60;;;0.50;;
80494;SDS011;69819;48.798;11.770;2023-09-19T09:13:46;0.40;;;0.40;;
80494;SDS011;69819;48.798;11.770;2023-09-19T09:16:13;0.85;;;0.30;;
80494;SDS011;69819;48.798;11.770;2023-09-19T09:18:43;0.43;;;0.30;;
80494;SDS011;69819;48.798;11.770;2023-09-19T09:21:10;0.30;;;0.20;;
80494;SDS011;69819;48.798;11.770;2023-09-19T09:23:38;0.30;;;0.30;;
80494;SDS011;69819;48.798;11.770;2023-09-19T09:26:04;0.30;;;0.25;;
80494;SDS011;69819;48.798;11.770;2023-09-19T09:28:32;0.30;;;0.30;;
80494;SDS011;69819;48.798;11.770;2023-09-19T09:31:01;0.45;;;0.30;;
80494;SDS011;69819;48.798;11.770;2023-09-19T09:33:34;1.08;;;0.32;;
80494;SDS011;69819;48.798;11.770;2023-09-19T09:36:01;0.57;;;0.30;;
80494;SDS011;69819;48.798;11.770;2023-09-19T09:38:30;0.20;;;0.20;;
80494;SDS011;69819;48.798;11.770;2023-09-19T09:41:13;0.30;;;0.22;;
80494;SDS011;69819;48.798;11.770;2023-09-19T09:43:52;0.38;;;0.30;;
80494;SDS011;69819;48.798;11.770;2023-09-19T09:46:18;0.22;;;0.22;;
80494;SDS011;69819;48.798;11.770;2023-09-19T09:48:47;0.20;;;0.20;;
80494;SDS011;69819;48.798;11.770;2023-09-19T09:51:48;0.45;;;0.40;;
80494;SDS011;69819;48.798;11.770;2023-09-19T09:54:24;0.52;;;0.50;;
80494;SDS011;69819;48.798;11.770;2023-09-19T09:57:02;0.50;;;0.50;;
80494;SDS011;69819;48.798;11.770;2023-09-19T09:59:54;0.30;;;0.30;;
80494;SDS011;69819;48.798;11.770;2023-09-19T10:02:27;0.40;;;0.40;;
80494;SDS011;69819;48.798;11.770;2023-09-19T10:04:58;0.30;;;0.30;;
80494;SDS011;69819;48.798;11.770;2023-09-19T10:07:35;0.20;;;0.20;;
80494;SDS011;69819;48.798;11.770;2023-09-19T10:10:06;0.63;;;0.50;;
80494;SDS011;69819;48.798;11.770;2023-09-19T10:12:50;0.40;;;0.40;;
80494;SDS011;69819;48.798;11.770;2023-09-19T10:15:27;0.40;;;0.40;;
80494;SDS011;69819;48.798;11.770;2023-09-19T10:17:58;0.40;;;0.40;;
80494;SDS011;69819;48.798;11.770;2023-09-19T10:20:29;0.50;;;0.32;;
80494;SDS011;69819;48.798;11.770;2023-09-19T10:23:00;0.32;;;0.32;;
80494;SDS011;69819;48.798;11.770;2023-09-19T10:25:42;0.85;;;0.40;;
80494;SDS011;69819;48.798;11.770;2023-09-19T10:28:12;0.40;;;0.40;;
80494;SDS011;69819;48.798;11.770;2023-09-19T10:30:44;0.52;;;0.30;;
80494;SDS011;69819;48.798;11.770;2023-09-19T10:33:15;0.47;;;0.47;;
80494;SDS011;69819;48.798;11.770;2023-09-19T10:35:48;0.40;;;0.30;;
80494;SDS011;69819;48.798;11.770;2023-09-19T10:38:19;0.30;;;0.30;;
80494;SDS011;69819;48.798;11.770;2023-09-19T10:40:50;0.30;;;0.30;;
80494;SDS011;69819;48.798;11.770;2023-09-19T10:43:20;0.60;;;0.60;;
80494;SDS011;69819;48.798;11.770;2023-09-19T10:45:50;0.35;;;0.35;;
80494;SDS011;69819;48.798;11.770;2023-09-19T10:48:17;0.60;;;0.40;;
80494;SDS011;69819;48.798;11.770;2023-09-19T10:50:52;0.25;;;0.25;;
80494;SDS011;69819;48.798;11.770;2023-09-19T10:56:21;0.40;;;0.30;;
80494;SDS011;69819;48.798;11.770;2023-09-19T10:59:10;1.05;;;0.43;;
80494;SDS011;69819;48.798;11.770;2023-09-19T11:01:49;0.30;;;0.30;;
80494;SDS011;69819;48.798;11.770;2023-09-19T11:04:24;0.90;;;0.90;;
80494;SDS011;69819;48.798;11.770;2023-09-19T11:07:08;2.60;;;1.45;;
80494;SDS011;69819;48.798;11.770;2023-09-19T11:09:47;1.52;;;0.82;;
80494;SDS011;69819;48.798;11.770;2023-09-19T11:15:06;0.35;;;0.35;;
80494;SDS011;69819;48.798;11.770;2023-09-19T11:17:42;0.30;;;0.30;;
80494;SDS011;69819;48.798;11.770;2023-09-19T11:33:17;1.08;;;0.30;;
80494;SDS011;69819;48.798;11.770;2023-09-19T11:43:51;0.30;;;0.30;;
80494;SDS011;69819;48.798;11.770;2023-09-19T11:46:54;0.40;;;0.40;;
80494;SDS011;69819;48.798;11.770;2023-09-19T11:49:26;0.50;;;0.43;;
80494;SDS011;69819;48.798;11.770;2023-09-19T11:51:57;0.35;;;0.30;;
80494;SDS011;69819;48.798;11.770;2023-09-19T11:54:30;0.40;;;0.40;;
80494;SDS011;69819;48.798;11.770;2023-09-19T11:56:58;0.30;;;0.30;;
80494;SDS011;69819;48.798;11.770;2023-09-19T11:59:31;1.13;;;0.32;;
80494;SDS011;69819;48.798;11.770;2023-09-19T12:02:07;0.85;;;0.30;;
80494;SDS011;69819;48.798;11.770;2023-09-19T12:04:53;1.05;;;0.40;;
80494;SDS011;69819;48.798;11.770;2023-09-19T12:07:19;0.60;;;0.50;;
80494;SDS011;69819;48.798;11.770;2023-09-19T12:09:50;0.95;;;0.65;;
80494;SDS011;69819;48.798;11.770;2023-09-19T12:12:29;0.32;;;0.25;;
80494;SDS011;69819;48.798;11.770;2023-09-19T12:14:56;0.30;;;0.20;;
80494;SDS011;69819;48.798;11.770;2023-09-19T12:17:23;0.40;;;0.40;;
80494;SDS011;69819;48.798;11.770;2023-09-19T12:20:01;0.28;;;0.28;;
80494;SDS011;69819;48.798;11.770;2023-09-19T12:22:41;0.20;;;0.20;;
80494;SDS011;69819;48.798;11.770;2023-09-19T12:25:12;0.50;;;0.50;;
80494;SDS011;69819;48.798;11.770;2023-09-19T12:27:44;0.60;;;0.30;;
80494;SDS011;69819;48.798;11.770;2023-09-19T12:30:12;0.60;;;0.32;;
80494;SDS011;69819;48.798;11.770;2023-09-19T12:32:39;0.40;;;0.40;;
80494;SDS011;69819;48.798;11.770;2023-09-19T12:35:07;0.73;;;0.30;;
80494;SDS011;69819;48.798;11.770;2023-09-19T12:37:36;0.40;;;0.40;;
80494;SDS011;69819;48.798;11.770;2023-09-19T12:40:07;0.40;;;0.40;;
80494;SDS011;69819;48.798;11.770;2023-09-19T12:42:47;0.55;;;0.35;;
80494;SDS011;69819;48.798;11.770;2023-09-19T12:45:14;0.40;;;0.40;;
80494;SDS011;69819;48.798;11.770;2023-09-19T12:51:04;1.73;;;0.30;;
80494;SDS011;69819;48.798;11.770;2023-09-19T12:53:42;0.35;;;0.35;;
80494;SDS011;69819;48.798;11.770;2023-09-19T12:56:12;0.40;;;0.40;;
80494;SDS011;69819;48.798;11.770;2023-09-19T13:01:21;0.40;;;0.40;;
80494;SDS011;69819;48.798;11.770;2023-09-19T13:06:37;0.40;;;0.40;;
80494;SDS011;69819;48.798;11.770;2023-09-19T13:09:09;0.40;;;0.40;;
80494;SDS011;69819;48.798;11.770;2023-09-19T13:11:37;0.30;;;0.30;;
80494;SDS011;69819;48.798;11.770;2023-09-19T13:14:19;0.47;;;0.47;;
80494;SDS011;69819;48.798;11.770;2023-09-19T13:19:42;0.28;;;0.28;;
80494;SDS011;69819;48.798;11.770;2023-09-19T13:27:31;0.40;;;0.38;;
80494;SDS011;69819;48.798;11.770;2023-09-19T13:29:58;0.45;;;0.45;;
80494;SDS011;69819;48.798;11.770;2023-09-19T13:32:24;0.38;;;0.38;;
80494;SDS011;69819;48.798;11.770;2023-09-19T13:34:50;0.45;;;0.30;;
80494;SDS011;69819;48.798;11.770;2023-09-19T13:37:16;0.20;;;0.20;;
80494;SDS011;69819;48.798;11.770;2023-09-19T13:39:43;1.20;;;0.50;;
80494;SDS011;69819;48.798;11.770;2023-09-19T13:42:12;0.63;;;0.40;;
80494;SDS011;69819;48.798;11.770;2023-09-19T13:44:39;0.52;;;0.52;;
80494;SDS011;69819;48.798;11.770;2023-09-19T13:47:06;0.50;;;0.50;;
80494;SDS011;69819;48.798;11.770;2023-09-19T13:49:38;0.35;;;0.35;;
80494;SDS011;69819;48.798;11.770;2023-09-19T13:52:03;0.55;;;0.50;;
80494;SDS011;69819;48.798;11.770;2023-09-19T13:54:30;0.73;;;0.30;;
80494;SDS011;69819;48.798;11.770;2023-09-19T13:56:56;0.52;;;0.50;;
80494;SDS011;69819;48.798;11.770;2023-09-19T13:59:22;1.00;;;0.40;;
80494;SDS011;69819;48.798;11.770;2023-09-19T14:01:49;0.47;;;0.45;;
80494;SDS011;69819;48.798;11.770;2023-09-19T14:04:19;0.50;;;0.50;;
80494;SDS011;69819;48.798;11.770;2023-09-19T14:06:47;0.77;;;0.60;;
80494;SDS011;69819;48.798;11.770;2023-09-19T14:09:13;0.68;;;0.45;;
80494;SDS011;69819;48.798;11.770;2023-09-19T14:11:39;0.50;;;0.50;;
80494;SDS011;69819;48.798;11.770;2023-09-19T14:14:05;0.82;;;0.50;;
80494;SDS011;69819;48.798;11.770;2023-09-19T14:16:31;0.40;;;0.40;;
80494;SDS011;69819;48.798;11.770;2023-09-19T14:18:58;0.50;;;0.50;;
80494;SDS011;69819;48.798;11.770;2023-09-19T14:21:24;0.40;;;0.40;;
80494;SDS011;69819;48.798;11.770;2023-09-19T14:23:51;1.00;;;0.40;;
80494;SDS011;69819;48.798;11.770;2023-09-19T14:26:16;0.40;;;0.40;;
80494;SDS011;69819;48.798;11.770;2023-09-19T14:28:43;0.68;;;0.60;;
80494;SDS011;69819;48.798;11.770;2023-09-19T14:31:10;0.80;;;0.55;;
80494;SDS011;69819;48.798;11.770;2023-09-19T14:33:37;0.68;;;0.50;;
80494;SDS011;69819;48.798;11.770;2023-09-19T14:36:03;0.30;;;0.30;;
80494;SDS011;69819;48.798;11.770;2023-09-19T14:38:35;0.73;;;0.30;;
80494;SDS011;69819;48.798;11.770;2023-09-19T14:41:03;0.70;;;0.50;;
80494;SDS011;69819;48.798;11.770;2023-09-19T14:43:32;0.35;;;0.35;;
80494;SDS011;69819;48.798;11.770;2023-09-19T14:46:07;0.52;;;0.52;;
80494;SDS011;69819;48.798;11.770;2023-09-19T14:48:34;0.68;;;0.47;;
80494;SDS011;69819;48.798;11.770;2023-09-19T14:51:03;0.40;;;0.40;;
80494;SDS011;69819;48.798;11.770;2023-09-19T14:53:31;0.47;;;0.30;;
80494;SDS011;69819;48.798;11.770;2023-09-19T14:55:59;0.70;;;0.50;;
80494;SDS011;69819;48.798;11.770;2023-09-19T14:58:32;0.30;;;0.30;;
80494;SDS011;69819;48.798;11.770;2023-09-19T15:01:11;0.50;;;0.50;;
80494;SDS011;69819;48.798;11.770;2023-09-19T15:03:39;1.10;;;0.40;;
80494;SDS011;69819;48.798;11.770;2023-09-19T15:06:11;0.57;;;0.40;;
80494;SDS011;69819;48.798;11.770;2023-09-19T15:08:43;1.10;;;0.70;;
80494;SDS011;69819;48.798;11.770;2023-09-19T15:11:15;0.70;;;0.47;;
80494;SDS011;69819;48.798;11.770;2023-09-19T15:13:42;0.47;;;0.40;;
80494;SDS011;69819;48.798;11.770;2023-09-19T15:16:10;0.80;;;0.43;;
80494;SDS011;69819;48.798;11.770;2023-09-19T15:18:38;0.55;;;0.55;;
80494;SDS011;69819;48.798;11.770;2023-09-19T15:21:07;0.70;;;0.40;;
80494;SDS011;69819;48.798;11.770;2023-09-19T15:23:34;0.43;;;0.43;;
80494;SDS011;69819;48.798;11.770;2023-09-19T15:26:02;0.32;;;0.32;;
80494;SDS011;69819;48.798;11.770;2023-09-19T15:28:29;0.47;;;0.43;;
80494;SDS011;69819;48.798;11.770;2023-09-19T15:31:00;0.45;;;0.38;;
80494;SDS011;69819;48.798;11.770;2023-09-19T15:33:28;0.40;;;0.40;;
80494;SDS011;69819;48.798;11.770;2023-09-19T15:36:11;0.80;;;0.68;;
80494;SDS011;69819;48.798;11.770;2023-09-19T15:41:29;0.55;;;0.38;;
80494;SDS011;69819;48.798;11.770;2023-09-19T15:46:32;0.50;;;0.40;;
80494;SDS011;69819;48.798;11.770;2023-09-19T15:49:00;0.32;;;0.32;;
80494;SDS011;69819;48.798;11.770;2023-09-19T15:51:26;0.30;;;0.30;;
80494;SDS011;69819;48.798;11.770;2023-09-19T15:53:53;1.27;;;0.40;;
80494;SDS011;69819;48.798;11.770;2023-09-19T15:56:21;0.40;;;0.40;;